createdAt,value
2018-04-30T00:02:18.708Z,15.50
2018-04-30T00:04:46.287Z,15.50
2018-04-30T00:07:13.883Z,15.50
2018-04-30T00:09:42.273Z,15.50
2018-04-30T00:12:09.835Z,15.60
2018-04-30T00:14:37.404Z,15.60
2018-04-30T00:17:04.971Z,15.70
2018-04-30T00:19:32.547Z,15.70
2018-04-30T00:22:00.168Z,15.60
2018-04-30T00:24:28.513Z,15.40
2018-04-30T00:26:56.097Z,15.50
2018-04-30T00:29:25.191Z,15.40
2018-04-30T00:31:53.652Z,15.30
2018-04-30T00:34:21.227Z,15.30
2018-04-30T00:36:48.795Z,15.30
2018-04-30T00:39:17.128Z,15.30
2018-04-30T00:41:44.720Z,15.20
2018-04-30T00:44:12.316Z,15.20
2018-04-30T00:46:40.716Z,15.20
2018-04-30T00:49:08.289Z,15.20
2018-04-30T00:51:35.880Z,15.20
2018-04-30T00:54:03.435Z,15.10
2018-04-30T00:56:31.021Z,15.10
2018-04-30T00:58:59.371Z,15.00
2018-04-30T01:01:26.947Z,15.00
2018-04-30T01:03:54.520Z,14.90
2018-04-30T01:06:22.883Z,14.80
2018-04-30T01:08:50.476Z,14.80
2018-04-30T01:11:18.838Z,14.70
2018-04-30T01:13:47.231Z,14.70
2018-04-30T01:16:15.576Z,14.60
2018-04-30T01:18:43.172Z,14.60
2018-04-30T01:21:10.773Z,14.60
2018-04-30T01:23:38.449Z,14.50
2018-04-30T01:26:06.032Z,14.40
2018-04-30T01:28:33.632Z,14.30
2018-04-30T01:31:01.207Z,14.20
2018-04-30T01:33:28.896Z,14.20
2018-04-30T01:35:56.452Z,14.10
2018-04-30T01:38:24.028Z,14.00
2018-04-30T01:40:52.383Z,13.90
2018-04-30T01:43:20.044Z,13.90
2018-04-30T01:45:47.640Z,13.90
2018-04-30T01:48:15.231Z,13.80
2018-04-30T01:50:42.819Z,13.70
2018-04-30T01:53:10.399Z,13.70
2018-04-30T01:55:37.972Z,13.60
2018-04-30T01:58:05.630Z,13.60
2018-04-30T02:00:33.260Z,13.60
2018-04-30T02:03:00.932Z,13.50
2018-04-30T02:05:28.524Z,13.50
2018-04-30T02:07:56.117Z,13.50
2018-04-30T02:10:24.447Z,13.60
2018-04-30T02:12:52.052Z,13.50
2018-04-30T02:15:20.404Z,13.60
2018-04-30T02:17:47.979Z,13.50
2018-04-30T02:20:15.552Z,13.50
2018-04-30T02:22:43.900Z,13.50
2018-04-30T02:25:11.479Z,13.50
2018-04-30T02:27:39.087Z,13.40
2018-04-30T02:30:06.788Z,13.30
2018-04-30T02:32:34.399Z,13.30
2018-04-30T02:35:01.962Z,13.30
2018-04-30T02:37:30.307Z,13.30
2018-04-30T02:39:57.884Z,13.20
2018-04-30T02:42:26.239Z,13.30
2018-04-30T02:44:53.842Z,13.20
2018-04-30T02:47:21.443Z,13.30
2018-04-30T02:49:49.048Z,13.20
2018-04-30T02:52:17.409Z,13.20
2018-04-30T02:54:44.970Z,13.20
2018-04-30T02:57:12.616Z,13.20
2018-04-30T02:59:40.214Z,13.20
2018-04-30T03:02:08.538Z,13.30
2018-04-30T03:04:36.128Z,13.20
2018-04-30T03:07:03.692Z,13.20
2018-04-30T03:09:31.297Z,13.10
2018-04-30T03:11:58.883Z,13.00
2018-04-30T03:14:26.510Z,13.00
2018-04-30T03:16:54.081Z,12.90
2018-04-30T03:19:21.705Z,12.90
2018-04-30T03:21:49.291Z,13.00
2018-04-30T03:24:17.658Z,13.20
2018-04-30T03:26:46.002Z,13.30
2018-04-30T03:29:13.603Z,13.20
2018-04-30T03:31:41.197Z,13.30
2018-04-30T03:34:08.771Z,13.30
2018-04-30T03:36:36.414Z,13.30
2018-04-30T03:39:04.001Z,13.30
2018-04-30T03:41:31.605Z,13.30
2018-04-30T03:43:59.950Z,13.40
2018-04-30T03:46:27.524Z,13.40
2018-04-30T03:48:55.104Z,13.40
2018-04-30T03:51:23.482Z,13.40
2018-04-30T03:53:51.103Z,13.40
2018-04-30T03:56:18.824Z,13.40
2018-04-30T03:58:47.160Z,13.40
2018-04-30T04:01:26.823Z,13.40
2018-04-30T04:04:06.056Z,13.40
2018-04-30T04:06:45.309Z,13.40
2018-04-30T04:09:13.649Z,13.40
2018-04-30T04:11:41.235Z,13.30
2018-04-30T04:14:08.856Z,13.30
2018-04-30T04:16:36.448Z,13.30
2018-04-30T04:19:05.529Z,13.40
2018-04-30T04:21:33.214Z,13.40
2018-04-30T04:24:00.776Z,13.40
2018-04-30T04:26:28.369Z,13.50
2018-04-30T04:28:56.705Z,13.60
2018-04-30T04:31:24.296Z,13.60
2018-04-30T04:33:52.757Z,13.70
2018-04-30T04:36:20.341Z,13.70
2018-04-30T04:38:48.704Z,13.90
2018-04-30T04:41:16.339Z,13.90
2018-04-30T04:43:43.935Z,14.00
2018-04-30T04:46:12.301Z,14.10
2018-04-30T04:48:39.992Z,14.10
2018-04-30T04:51:08.336Z,14.30
2018-04-30T04:53:35.939Z,14.30
2018-04-30T04:56:04.271Z,13.10
2018-04-30T04:58:31.872Z,14.50
2018-04-30T05:01:00.873Z,14.40
2018-04-30T05:03:29.615Z,14.40
2018-04-30T05:05:57.172Z,14.40
2018-04-30T05:08:24.786Z,14.30
2018-04-30T05:10:52.492Z,14.30
2018-04-30T05:13:20.041Z,14.30
2018-04-30T05:15:47.613Z,14.20
2018-04-30T05:18:15.207Z,14.20
2018-04-30T05:20:42.775Z,14.20
2018-04-30T05:23:11.118Z,14.10
2018-04-30T05:25:38.710Z,14.10
2018-04-30T05:28:07.047Z,14.00
2018-04-30T05:30:34.668Z,14.00
2018-04-30T05:33:02.280Z,14.00
2018-04-30T05:35:29.889Z,14.00
2018-04-30T05:37:58.220Z,13.90
2018-04-30T05:40:26.847Z,13.90
2018-04-30T05:42:55.189Z,13.80
2018-04-30T05:45:22.787Z,13.80
2018-04-30T05:47:51.219Z,13.90
2018-04-30T05:50:18.824Z,13.90
2018-04-30T05:52:47.144Z,13.80
2018-04-30T05:55:14.742Z,13.90
2018-04-30T05:57:42.291Z,13.80
2018-04-30T06:00:09.888Z,13.80
2018-04-30T06:02:37.442Z,13.80
2018-04-30T06:05:05.823Z,13.80
2018-04-30T06:07:34.167Z,13.70
2018-04-30T06:10:01.805Z,13.70
2018-04-30T06:12:29.403Z,13.70
2018-04-30T06:14:57.101Z,13.60
2018-04-30T06:17:25.520Z,13.50
2018-04-30T06:19:53.028Z,13.50
2018-04-30T06:22:21.401Z,13.40
2018-04-30T06:24:49.025Z,13.30
2018-04-30T06:27:16.611Z,13.30
2018-04-30T06:29:44.259Z,13.30
2018-04-30T06:32:11.837Z,13.30
2018-04-30T06:34:39.401Z,13.40
2018-04-30T06:37:06.987Z,13.40
2018-04-30T06:39:35.347Z,13.40
2018-04-30T06:42:02.957Z,13.50
2018-04-30T06:44:30.544Z,13.40
2018-04-30T06:46:58.141Z,13.50
2018-04-30T06:49:26.536Z,13.40
2018-04-30T06:51:54.106Z,13.40
2018-04-30T06:54:21.714Z,13.40
2018-04-30T06:56:49.296Z,13.30
2018-04-30T06:59:16.914Z,13.30
2018-04-30T07:01:44.465Z,13.30
2018-04-30T07:04:12.077Z,13.30
2018-04-30T07:06:39.651Z,13.30
2018-04-30T07:09:08.038Z,13.40
2018-04-30T07:11:35.567Z,13.30
2018-04-30T07:14:03.204Z,13.30
2018-04-30T07:16:30.788Z,13.30
2018-04-30T07:18:58.361Z,13.30
2018-04-30T07:21:25.933Z,13.40
2018-04-30T07:23:54.315Z,13.40
2018-04-30T07:26:21.883Z,13.40
2018-04-30T07:28:50.220Z,13.40
2018-04-30T07:31:17.802Z,13.40
2018-04-30T07:33:45.366Z,13.40
2018-04-30T07:36:12.941Z,13.50
2018-04-30T07:38:41.357Z,13.50
2018-04-30T07:41:09.056Z,13.50
2018-04-30T07:43:36.616Z,13.60
2018-04-30T07:46:04.208Z,13.60
2018-04-30T07:48:32.568Z,13.60
2018-04-30T07:51:00.144Z,13.60
2018-04-30T07:53:28.482Z,13.60
2018-04-30T07:55:56.040Z,13.60
2018-04-30T07:58:23.643Z,13.60
2018-04-30T08:00:51.238Z,13.60
2018-04-30T08:03:18.811Z,13.60
2018-04-30T08:05:46.428Z,13.60
2018-04-30T08:08:14.032Z,13.60
2018-04-30T08:10:41.597Z,13.60
2018-04-30T08:13:09.179Z,16.50
2018-04-30T08:15:37.323Z,13.50
2018-04-30T08:18:04.968Z,13.50
2018-04-30T08:20:32.566Z,13.40
2018-04-30T08:23:00.145Z,13.30
2018-04-30T08:25:27.944Z,13.30
2018-04-30T08:27:56.353Z,13.30
2018-04-30T08:30:23.903Z,13.30
2018-04-30T08:32:51.532Z,13.30
2018-04-30T08:35:20.338Z,13.30
2018-04-30T08:37:48.709Z,13.30
2018-04-30T08:40:17.133Z,13.40
2018-04-30T08:42:44.709Z,13.40
2018-04-30T08:45:12.268Z,13.40
2018-04-30T08:47:39.912Z,13.40
2018-04-30T08:50:07.478Z,13.30
2018-04-30T08:52:35.024Z,13.30
2018-04-30T08:55:02.707Z,13.20
2018-04-30T08:57:30.308Z,13.10
2018-04-30T08:59:57.904Z,13.10
2018-04-30T09:02:25.463Z,13.10
2018-04-30T09:04:53.042Z,13.20
2018-04-30T09:07:20.604Z,13.20
2018-04-30T09:09:48.478Z,13.20
2018-04-30T09:12:16.044Z,13.20
2018-04-30T09:14:43.609Z,13.30
2018-04-30T09:17:11.194Z,13.30
2018-04-30T09:19:38.798Z,13.30
2018-04-30T09:22:07.151Z,13.20
2018-04-30T09:24:34.860Z,13.20
2018-04-30T09:27:02.446Z,13.30
2018-04-30T09:29:30.046Z,13.40
2018-04-30T09:31:58.402Z,13.40
2018-04-30T09:34:26.871Z,13.50
2018-04-30T09:36:54.426Z,13.50
2018-04-30T09:39:22.028Z,13.50
2018-04-30T09:41:50.441Z,13.70
2018-04-30T09:44:18.026Z,13.70
2018-04-30T09:46:45.637Z,13.80
2018-04-30T09:49:14.222Z,13.80
2018-04-30T09:51:41.797Z,13.80
2018-04-30T09:54:09.372Z,13.80
2018-04-30T09:56:37.006Z,13.80
2018-04-30T09:59:05.369Z,13.80
2018-04-30T10:01:32.977Z,13.80
2018-04-30T10:04:00.576Z,13.80
2018-04-30T10:06:28.168Z,13.90
2018-04-30T10:08:56.498Z,14.10
2018-04-30T10:11:24.076Z,14.10
2018-04-30T10:13:51.813Z,14.20
2018-04-30T10:16:19.420Z,14.50
2018-04-30T10:18:47.024Z,14.60
2018-04-30T10:21:14.589Z,14.80
2018-04-30T10:23:42.245Z,15.00
2018-04-30T10:26:09.815Z,15.40
2018-04-30T10:28:37.483Z,16.00
2018-04-30T10:31:05.048Z,16.10
2018-04-30T10:33:32.633Z,16.70
2018-04-30T10:36:00.196Z,17.20
2018-04-30T10:38:28.502Z,17.70
2018-04-30T10:40:57.029Z,18.80
2018-04-30T10:43:24.625Z,18.80
2018-04-30T10:45:52.257Z,20.40
2018-04-30T10:48:19.851Z,20.50
2018-04-30T10:50:47.435Z,20.70
2018-04-30T10:53:15.797Z,19.60
2018-04-30T10:55:43.370Z,19.60
2018-04-30T10:58:11.741Z,19.70
2018-04-30T11:00:40.138Z,18.90
2018-04-30T11:03:08.512Z,18.50
2018-04-30T11:05:37.309Z,18.40
2018-04-30T11:08:05.712Z,18.30
2018-04-30T11:10:33.362Z,18.30
2018-04-30T11:13:01.035Z,18.70
2018-04-30T11:15:28.637Z,18.70
2018-04-30T11:17:56.405Z,19.00
2018-04-30T11:20:24.039Z,18.60
2018-04-30T11:22:51.630Z,17.80
2018-04-30T11:25:19.287Z,18.00
2018-04-30T11:27:47.226Z,18.50
2018-04-30T11:30:14.878Z,18.70
2018-04-30T11:32:42.458Z,17.70
2018-04-30T11:35:10.900Z,17.10
2018-04-30T11:37:39.253Z,16.70
2018-04-30T11:40:06.927Z,16.60
2018-04-30T11:42:35.181Z,16.70
2018-04-30T11:45:02.735Z,16.70
2018-04-30T11:47:30.292Z,16.80
2018-04-30T11:49:57.951Z,16.90
2018-04-30T11:52:25.544Z,16.70
2018-04-30T11:54:53.144Z,16.30
2018-04-30T11:57:20.705Z,16.10
2018-04-30T11:59:48.312Z,15.80
2018-04-30T12:02:15.919Z,15.90
2018-04-30T12:04:43.475Z,16.10
2018-04-30T12:07:11.064Z,16.40
2018-04-30T12:09:38.632Z,16.60
2018-04-30T12:12:06.275Z,17.10
2018-04-30T12:14:33.836Z,17.40
2018-04-30T12:17:01.451Z,17.40
2018-04-30T12:19:29.138Z,17.10
2018-04-30T12:21:57.538Z,17.40
2018-04-30T12:24:25.084Z,17.40
2018-04-30T12:26:52.681Z,17.20
2018-04-30T12:29:20.287Z,17.60
2018-04-30T12:31:48.686Z,17.70
2018-04-30T12:34:16.265Z,17.70
2018-04-30T12:36:43.852Z,17.70
2018-04-30T12:39:11.468Z,17.90
2018-04-30T12:41:39.835Z,18.00
2018-04-30T12:44:08.253Z,18.00
2018-04-30T12:46:35.815Z,18.00
2018-04-30T12:49:03.405Z,18.00
2018-04-30T12:51:31.014Z,17.90
2018-04-30T12:53:58.613Z,17.90
2018-04-30T12:56:26.202Z,18.00
2018-04-30T12:58:53.864Z,18.20
2018-04-30T13:01:21.495Z,18.20
2018-04-30T13:03:49.854Z,17.80
2018-04-30T13:06:17.412Z,17.70
2018-04-30T13:08:45.118Z,17.40
2018-04-30T13:11:12.692Z,17.20
2018-04-30T13:13:40.352Z,17.20
2018-04-30T13:16:07.976Z,17.20
2018-04-30T13:18:35.581Z,17.30
2018-04-30T13:21:03.733Z,17.30
2018-04-30T13:23:31.308Z,17.40
2018-04-30T13:25:58.926Z,17.20
2018-04-30T13:28:26.511Z,17.00
2018-04-30T13:30:54.903Z,16.80
2018-04-30T13:33:22.456Z,16.60
2018-04-30T13:35:50.056Z,16.60
2018-04-30T13:38:17.616Z,16.70
2018-04-30T13:40:45.994Z,16.70
2018-04-30T13:43:13.592Z,16.80
2018-04-30T13:45:41.188Z,16.80
2018-04-30T13:48:08.813Z,16.70
2018-04-30T13:50:36.414Z,16.60
2018-04-30T13:53:03.984Z,16.40
2018-04-30T13:55:31.545Z,16.30
2018-04-30T13:58:00.116Z,16.30
2018-04-30T14:00:27.696Z,16.60
2018-04-30T14:02:55.305Z,16.60
2018-04-30T14:05:22.903Z,16.80
2018-04-30T14:07:50.486Z,16.80
2018-04-30T14:10:18.642Z,16.80
2018-04-30T14:12:46.242Z,16.80
2018-04-30T14:15:14.611Z,16.40
2018-04-30T14:17:42.298Z,16.00
2018-04-30T14:20:09.877Z,15.90
2018-04-30T14:22:38.428Z,15.90
2018-04-30T14:25:06.762Z,15.90
2018-04-30T14:27:34.345Z,15.90
2018-04-30T14:30:01.926Z,15.90
2018-04-30T14:32:30.272Z,15.70
2018-04-30T14:34:57.906Z,14.60
2018-04-30T14:37:26.229Z,13.90
2018-04-30T14:39:53.772Z,13.80
2018-04-30T14:42:21.364Z,13.60
2018-04-30T14:44:49.742Z,12.90
2018-04-30T14:47:17.348Z,12.80
2018-04-30T14:49:45.740Z,12.90
2018-04-30T14:52:13.329Z,12.90
2018-04-30T14:54:41.070Z,13.00
2018-04-30T14:57:08.657Z,13.20
2018-04-30T14:59:36.247Z,13.60
2018-04-30T15:02:03.834Z,14.00
2018-04-30T15:04:31.444Z,14.20
2018-04-30T15:06:59.028Z,14.20
2018-04-30T15:09:27.437Z,14.40
2018-04-30T15:11:55.041Z,14.40
2018-04-30T15:14:22.621Z,14.50
2018-04-30T15:16:50.987Z,14.40
2018-04-30T15:19:18.575Z,14.40
2018-04-30T15:21:46.160Z,14.50
2018-04-30T15:24:13.728Z,14.30
2018-04-30T15:26:41.332Z,14.20
2018-04-30T15:29:08.927Z,14.30
2018-04-30T15:31:37.252Z,14.70
2018-04-30T15:34:04.827Z,14.70
2018-04-30T15:36:32.444Z,14.90
2018-04-30T15:39:00.032Z,14.80
2018-04-30T15:41:27.643Z,14.70
2018-04-30T15:43:55.272Z,14.50
2018-04-30T15:46:23.612Z,14.30
2018-04-30T15:48:51.195Z,14.30
2018-04-30T15:51:18.791Z,14.10
2018-04-30T15:53:47.252Z,14.00
2018-04-30T15:56:14.819Z,14.00
2018-04-30T15:58:42.489Z,14.00
2018-04-30T16:01:10.029Z,14.00
2018-04-30T16:03:37.613Z,13.90
2018-04-30T16:06:05.199Z,13.90
2018-04-30T16:08:33.548Z,13.50
2018-04-30T16:11:01.943Z,14.50
2018-04-30T16:13:30.300Z,13.40
2018-04-30T16:15:57.888Z,13.40
2018-04-30T16:18:26.295Z,13.20
2018-04-30T16:20:53.949Z,13.20
2018-04-30T16:23:21.530Z,13.10
2018-04-30T16:25:49.113Z,13.00
2018-04-30T16:28:16.706Z,12.90
2018-04-30T16:30:45.064Z,12.60
2018-04-30T16:33:12.624Z,12.60
2018-04-30T16:35:40.202Z,12.60
2018-04-30T16:38:07.813Z,12.60
2018-04-30T16:40:35.408Z,12.50
2018-04-30T16:43:03.011Z,12.50
2018-04-30T16:45:31.392Z,12.60
2018-04-30T16:47:59.845Z,12.70
2018-04-30T16:50:27.409Z,12.60
2018-04-30T16:52:55.763Z,12.90
2018-04-30T16:55:23.378Z,12.90
2018-04-30T16:57:50.988Z,13.10
2018-04-30T17:00:18.653Z,13.20
2018-04-30T17:02:46.211Z,13.30
2018-04-30T17:05:13.813Z,13.30
2018-04-30T17:07:42.172Z,13.40
2018-04-30T17:10:09.777Z,13.40
2018-04-30T17:12:37.427Z,13.40
2018-04-30T17:15:05.019Z,13.40
2018-04-30T17:17:32.640Z,13.40
2018-04-30T17:20:01.020Z,13.50
2018-04-30T17:22:29.452Z,12.50
2018-04-30T17:24:57.021Z,13.50
2018-04-30T17:27:25.144Z,13.50
2018-04-30T17:29:52.760Z,13.50
2018-04-30T17:32:21.417Z,13.50
2018-04-30T17:34:49.020Z,13.50
2018-04-30T17:37:16.664Z,13.40
2018-04-30T17:39:44.280Z,13.30
2018-04-30T17:42:12.629Z,13.10
2018-04-30T17:44:40.236Z,13.10
2018-04-30T17:47:07.985Z,13.00
2018-04-30T17:49:35.557Z,12.90
2018-04-30T17:52:03.111Z,12.90
2018-04-30T17:54:30.716Z,12.80
2018-04-30T17:56:58.333Z,12.70
2018-04-30T17:59:25.992Z,12.60
2018-04-30T18:01:53.574Z,12.50
2018-04-30T18:04:21.211Z,12.50
2018-04-30T18:06:49.633Z,12.40
2018-04-30T18:09:17.208Z,12.40
2018-04-30T18:11:44.810Z,12.40
2018-04-30T18:14:13.186Z,12.40
2018-04-30T18:16:41.521Z,12.30
2018-04-30T18:19:09.146Z,12.30
2018-04-30T18:21:36.738Z,12.20
2018-04-30T18:24:04.325Z,12.20
2018-04-30T18:26:32.733Z,12.10
2018-04-30T18:29:00.304Z,12.10
2018-04-30T18:31:27.882Z,12.10
2018-04-30T18:33:55.526Z,12.10
2018-04-30T18:36:23.173Z,12.10
2018-04-30T18:38:51.542Z,12.00
2018-04-30T18:41:19.187Z,11.90
2018-04-30T18:43:47.789Z,11.80
2018-04-30T18:46:16.155Z,11.60
2018-04-30T18:48:43.783Z,11.50
2018-04-30T18:51:11.431Z,11.50
2018-04-30T18:53:38.993Z,11.40
2018-04-30T18:56:06.604Z,11.30
2018-04-30T18:58:34.182Z,11.20
2018-04-30T19:01:02.545Z,11.00
2018-04-30T19:03:30.121Z,11.00
2018-04-30T19:05:59.335Z,10.80
2018-04-30T19:08:27.733Z,10.80
2018-04-30T19:10:55.334Z,10.80
2018-04-30T19:13:23.001Z,10.70
2018-04-30T19:15:51.387Z,10.50
2018-04-30T19:18:19.005Z,10.50
2018-04-30T19:20:46.623Z,10.50
2018-04-30T19:23:14.235Z,10.50
2018-04-30T19:25:41.860Z,10.50
2018-04-30T19:28:10.213Z,10.70
2018-04-30T19:30:37.830Z,10.70
2018-04-30T19:33:05.530Z,10.80
2018-04-30T19:35:33.156Z,10.90
2018-04-30T19:38:00.863Z,10.90
2018-04-30T19:40:28.422Z,10.80
2018-04-30T19:42:56.023Z,10.80
2018-04-30T19:45:23.662Z,10.80
2018-04-30T19:47:51.705Z,10.70
2018-04-30T19:50:19.281Z,10.70
2018-04-30T19:52:46.921Z,10.70
2018-04-30T19:55:14.545Z,10.60
2018-04-30T19:57:42.908Z,10.70
2018-04-30T20:00:11.283Z,10.70
2018-04-30T20:02:38.932Z,10.60
2018-04-30T20:05:06.530Z,10.70
2018-04-30T20:07:34.108Z,10.70
2018-04-30T20:10:01.907Z,10.70
2018-04-30T20:12:29.492Z,10.70
2018-04-30T20:14:57.897Z,10.50
2018-04-30T20:17:26.251Z,10.50
2018-04-30T20:19:53.850Z,10.40
2018-04-30T20:22:21.439Z,10.50
2018-04-30T20:24:49.052Z,10.50
2018-04-30T20:27:17.424Z,10.30
2018-04-30T20:29:45.870Z,10.20
2018-04-30T20:32:13.437Z,10.20
2018-04-30T20:34:40.985Z,10.10
2018-04-30T20:37:08.600Z,10.10
2018-04-30T20:39:36.192Z,10.10
2018-04-30T20:42:03.779Z,10.20
2018-04-30T20:44:31.468Z,10.20
2018-04-30T20:46:59.063Z,10.20
2018-04-30T20:49:26.670Z,10.10
2018-04-30T20:51:54.259Z,10.00
2018-04-30T20:54:22.637Z,9.70
2018-04-30T20:56:51.061Z,9.70
2018-04-30T20:59:18.613Z,9.70
2018-04-30T21:01:46.225Z,9.60
2018-04-30T21:04:13.799Z,9.50
2018-04-30T21:06:42.163Z,9.30
2018-04-30T21:09:13.732Z,9.20
2018-04-30T21:11:41.317Z,9.20
2018-04-30T21:14:08.943Z,9.20
2018-04-30T21:16:36.542Z,9.20
2018-04-30T21:19:04.116Z,9.10
2018-04-30T21:21:31.684Z,9.10
2018-04-30T21:23:59.260Z,9.10
2018-04-30T21:26:26.846Z,9.10
2018-04-30T21:28:54.642Z,9.00
2018-04-30T21:31:23.032Z,8.90
2018-04-30T21:33:50.608Z,8.90
2018-04-30T21:36:18.929Z,9.00
2018-04-30T21:38:46.520Z,9.00
2018-04-30T21:41:14.887Z,9.00
2018-04-30T21:43:43.254Z,9.10
2018-04-30T21:46:10.905Z,9.00
2018-04-30T21:48:38.487Z,9.10
2018-04-30T21:51:06.856Z,9.00
2018-04-30T21:53:34.464Z,9.00
2018-04-30T21:56:02.055Z,9.00
2018-04-30T21:58:29.681Z,9.00
2018-04-30T22:00:57.274Z,9.00
2018-04-30T22:03:24.826Z,8.90
2018-04-30T22:05:52.411Z,9.00
2018-04-30T22:08:19.996Z,8.90
2018-04-30T22:10:47.572Z,8.90
2018-04-30T22:13:15.922Z,8.90
2018-04-30T22:15:43.510Z,8.80
2018-04-30T22:18:11.837Z,8.80
2018-04-30T22:20:39.477Z,8.80
2018-04-30T22:23:07.044Z,8.80
2018-04-30T22:25:34.606Z,8.70
2018-04-30T22:28:02.190Z,8.70
2018-04-30T22:30:29.781Z,8.60
2018-04-30T22:32:58.116Z,8.50
2018-04-30T22:35:25.755Z,8.50
2018-04-30T22:37:53.327Z,8.50
2018-04-30T22:40:20.911Z,8.50
2018-04-30T22:42:48.807Z,8.40
2018-04-30T22:45:16.460Z,8.40
2018-04-30T22:47:44.084Z,8.30
2018-04-30T22:50:11.783Z,8.30
2018-04-30T22:52:39.366Z,8.30
2018-04-30T22:55:07.803Z,8.30
2018-04-30T22:57:36.380Z,8.20
2018-04-30T23:00:03.971Z,10.10
2018-04-30T23:02:31.580Z,8.20
2018-04-30T23:04:59.144Z,8.10
2018-04-30T23:07:26.848Z,8.10
2018-04-30T23:09:54.448Z,8.00
2018-04-30T23:12:22.816Z,8.00
2018-04-30T23:14:51.231Z,7.90
2018-04-30T23:17:18.872Z,7.90
2018-04-30T23:19:47.223Z,7.90
2018-04-30T23:22:15.315Z,7.90
2018-04-30T23:24:43.850Z,7.80
2018-04-30T23:27:11.423Z,7.80
2018-04-30T23:29:39.028Z,7.80
2018-04-30T23:32:07.389Z,7.60
2018-04-30T23:34:35.015Z,7.50
2018-04-30T23:37:02.676Z,7.40
2018-04-30T23:39:30.149Z,7.20
2018-04-30T23:41:57.715Z,7.10
2018-04-30T23:44:25.285Z,7.10
2018-04-30T23:46:53.432Z,7.00
2018-04-30T23:49:21.027Z,6.90
2018-04-30T23:51:48.601Z,6.80
2018-04-30T23:54:17.655Z,6.60
2018-04-30T23:56:45.227Z,6.60
2018-04-30T23:59:12.811Z,6.50
